Rolette, North Dakota
Current Conditions -  °F | °C
As of 2:35 AM on Wednesday 26 Nov 2014 (Local Time) from K06D Reporting Station
Overcast Overcast  
Wind Chill: -19°   Ceiling: 5000
Heat Index:   Visibility: 8mi
Dew Point: -4°   Wind: 14mph
Humidity: 85%   Direction: 20°NNE
Pressure: 30.24"   Gusts: NA
Location:  48.66°N, 99.84°W
Report Text: K06D 260835Z AUTO 02012KT 8SM SCT003 SCT007 OVC050 M18/M20 A3024 RMK AO2
Loading
Personal Weather Stations






























Interactive Weather Map New forecast layout! Learn more

10-Day Weather Forecast

Advertisements
Track Severe Weather on mobile